sensor_id;sensor_type;location;lat;lon;timestamp;pressure;altitude;pressure_sealevel;temperature;humidity
18821;BME280;9539;59.332;18.034;2022-09-01T00:01:17;102076.88;;;11.92;100.00
18821;BME280;9539;59.332;18.034;2022-09-01T00:03:48;102076.78;;;11.94;100.00
18821;BME280;9539;59.332;18.034;2022-09-01T00:06:17;102081.47;;;11.89;100.00
18821;BME280;9539;59.332;18.034;2022-09-01T00:08:47;102072.06;;;12.00;100.00
18821;BME280;9539;59.332;18.034;2022-09-01T00:11:14;102074.69;;;11.82;100.00
18821;BME280;9539;59.332;18.034;2022-09-01T00:13:41;102073.44;;;11.90;100.00
18821;BME280;9539;59.332;18.034;2022-09-01T00:16:07;102073.50;;;11.89;100.00
18821;BME280;9539;59.332;18.034;2022-09-01T00:18:39;102062.78;;;11.90;100.00
18821;BME280;9539;59.332;18.034;2022-09-01T00:21:06;102060.06;;;11.92;100.00
18821;BME280;9539;59.332;18.034;2022-09-01T00:23:33;102062.78;;;11.90;100.00
18821;BME280;9539;59.332;18.034;2022-09-01T00:26:02;102060.56;;;12.00;100.00
18821;BME280;9539;59.332;18.034;2022-09-01T00:28:31;102059.97;;;11.93;100.00
18821;BME280;9539;59.332;18.034;2022-09-01T00:30:58;102060.78;;;11.95;100.00
18821;BME280;9539;59.332;18.034;2022-09-01T00:33:25;102057.53;;;11.89;100.00
18821;BME280;9539;59.332;18.034;2022-09-01T00:35:54;102054.59;;;11.95;100.00
18821;BME280;9539;59.332;18.034;2022-09-01T00:38:20;102053.88;;;11.91;100.00
18821;BME280;9539;59.332;18.034;2022-09-01T00:40:47;102056.53;;;11.91;100.00
18821;BME280;9539;59.332;18.034;2022-09-01T00:43:20;102058.28;;;11.92;100.00
18821;BME280;9539;59.332;18.034;2022-09-01T00:45:48;102051.41;;;11.87;100.00
18821;BME280;9539;59.332;18.034;2022-09-01T00:48:16;102052.28;;;11.87;100.00
18821;BME280;9539;59.332;18.034;2022-09-01T00:50:45;102063.84;;;11.86;100.00
18821;BME280;9539;59.332;18.034;2022-09-01T00:53:14;102066.50;;;11.86;100.00
18821;BME280;9539;59.332;18.034;2022-09-01T00:55:40;102065.78;;;11.83;100.00
18821;BME280;9539;59.332;18.034;2022-09-01T00:58:07;102064.91;;;11.82;100.00
18821;BME280;9539;59.332;18.034;2022-09-01T01:00:38;102062.63;;;11.73;100.00
18821;BME280;9539;59.332;18.034;2022-09-01T01:03:07;102064.72;;;11.67;100.00
18821;BME280;9539;59.332;18.034;2022-09-01T01:05:37;102066.13;;;11.75;100.00
18821;BME280;9539;59.332;18.034;2022-09-01T01:08:06;102071.16;;;11.81;100.00
18821;BME280;9539;59.332;18.034;2022-09-01T01:10:38;102059.59;;;11.82;100.00
18821;BME280;9539;59.332;18.034;2022-09-01T01:13:09;102058.38;;;11.69;100.00
18821;BME280;9539;59.332;18.034;2022-09-01T01:15:37;102054.56;;;11.76;100.00
18821;BME280;9539;59.332;18.034;2022-09-01T01:18:08;102063.84;;;11.86;100.00
18821;BME280;9539;59.332;18.034;2022-09-01T01:20:35;102067.94;;;11.93;100.00
18821;BME280;9539;59.332;18.034;2022-09-01T01:23:24;102067.53;;;11.84;100.00
18821;BME280;9539;59.332;18.034;2022-09-01T01:25:55;102060.97;;;11.71;100.00
18821;BME280;9539;59.332;18.034;2022-09-01T01:28:25;102066.06;;;11.77;100.00
18821;BME280;9539;59.332;18.034;2022-09-01T01:30:54;102072.50;;;11.71;100.00
18821;BME280;9539;59.332;18.034;2022-09-01T01:33:25;102067.94;;;11.73;100.00
18821;BME280;9539;59.332;18.034;2022-09-01T01:35:53;102061.84;;;11.71;100.00
18821;BME280;9539;59.332;18.034;2022-09-01T01:38:23;102061.84;;;11.71;100.00
18821;BME280;9539;59.332;18.034;2022-09-01T01:40:50;102057.53;;;11.69;100.00
18821;BME280;9539;59.332;18.034;2022-09-01T01:43:21;102051.97;;;11.75;100.00
18821;BME280;9539;59.332;18.034;2022-09-01T01:45:50;102052.22;;;11.69;100.00
18821;BME280;9539;59.332;18.034;2022-09-01T01:48:18;102056.59;;;11.70;100.00
18821;BME280;9539;59.332;18.034;2022-09-01T01:50:47;102060.41;;;11.64;100.00
18821;BME280;9539;59.332;18.034;2022-09-01T01:53:14;102057.00;;;11.60;100.00
18821;BME280;9539;59.332;18.034;2022-09-01T01:55:43;102053.50;;;11.60;100.00
18821;BME280;9539;59.332;18.034;2022-09-01T01:58:10;102049.59;;;11.67;100.00
18821;BME280;9539;59.332;18.034;2022-09-01T02:00:41;102059.19;;;11.71;100.00
18821;BME280;9539;59.332;18.034;2022-09-01T02:03:12;102051.34;;;11.68;100.00
18821;BME280;9539;59.332;18.034;2022-09-01T02:05:42;102052.00;;;11.73;100.00
18821;BME280;9539;59.332;18.034;2022-09-01T02:08:10;102041.31;;;11.75;100.00
18821;BME280;9539;59.332;18.034;2022-09-01T02:10:39;102042.44;;;11.69;100.00
18821;BME280;9539;59.332;18.034;2022-09-01T02:13:10;102046.63;;;11.75;100.00
18821;BME280;9539;59.332;18.034;2022-09-01T02:15:44;102053.28;;;11.65;100.00
18821;BME280;9539;59.332;18.034;2022-09-01T02:18:12;102050.41;;;11.69;100.00
18821;BME280;9539;59.332;18.034;2022-09-01T02:20:41;102054.31;;;11.60;100.00
18821;BME280;9539;59.332;18.034;2022-09-01T02:23:08;102051.63;;;11.62;100.00
18821;BME280;9539;59.332;18.034;2022-09-01T02:25:42;102061.25;;;11.65;100.00
18821;BME280;9539;59.332;18.034;2022-09-01T02:28:11;102061.31;;;11.63;100.00
18821;BME280;9539;59.332;18.034;2022-09-01T02:30:42;102055.34;;;11.58;100.00
18821;BME280;9539;59.332;18.034;2022-09-01T02:33:09;102061.25;;;11.65;100.00
18821;BME280;9539;59.332;18.034;2022-09-01T02:35:36;102052.69;;;11.58;100.00
18821;BME280;9539;59.332;18.034;2022-09-01T02:38:04;102058.81;;;11.60;100.00
18821;BME280;9539;59.332;18.034;2022-09-01T02:40:31;102058.00;;;11.58;100.00
18821;BME280;9539;59.332;18.034;2022-09-01T02:42:59;102053.41;;;11.61;100.00
18821;BME280;9539;59.332;18.034;2022-09-01T02:45:27;102051.44;;;11.67;100.00
18821;BME280;9539;59.332;18.034;2022-09-01T02:47:55;102064.97;;;11.60;100.00
18821;BME280;9539;59.332;18.034;2022-09-01T02:50:23;102059.66;;;11.60;100.00
18821;BME280;9539;59.332;18.034;2022-09-01T02:52:51;102056.53;;;11.71;100.00
18821;BME280;9539;59.332;18.034;2022-09-01T02:55:19;102061.31;;;11.63;100.00
18821;BME280;9539;59.332;18.034;2022-09-01T02:57:48;102056.94;;;11.62;100.00
18821;BME280;9539;59.332;18.034;2022-09-01T03:00:16;102066.31;;;11.71;100.00
18821;BME280;9539;59.332;18.034;2022-09-01T03:02:51;102049.34;;;11.73;100.00
18821;BME280;9539;59.332;18.034;2022-09-01T03:05:20;102055.09;;;11.84;100.00
18821;BME280;9539;59.332;18.034;2022-09-01T03:07:51;102059.91;;;11.95;100.00
18821;BME280;9539;59.332;18.034;2022-09-01T03:10:23;102057.03;;;11.99;100.00
18821;BME280;9539;59.332;18.034;2022-09-01T03:12:56;102057.91;;;12.00;100.00
18821;BME280;9539;59.332;18.034;2022-09-01T03:15:24;102058.56;;;12.05;100.00
18821;BME280;9539;59.332;18.034;2022-09-01T03:17:51;102060.16;;;12.09;100.00
18821;BME280;9539;59.332;18.034;2022-09-01T03:20:20;102064.81;;;12.04;100.00
18821;BME280;9539;59.332;18.034;2022-09-01T03:22:47;102070.78;;;12.09;100.00
18821;BME280;9539;59.332;18.034;2022-09-01T03:25:16;102064.53;;;12.10;100.00
18821;BME280;9539;59.332;18.034;2022-09-01T03:27:43;102072.88;;;12.02;100.00
18821;BME280;9539;59.332;18.034;2022-09-01T03:30:13;102064.38;;;12.13;100.00
18821;BME280;9539;59.332;18.034;2022-09-01T03:32:40;102062.06;;;12.06;100.00
18821;BME280;9539;59.332;18.034;2022-09-01T03:35:07;102065.69;;;12.05;100.00
18821;BME280;9539;59.332;18.034;2022-09-01T03:37:36;102069.34;;;12.02;100.00
18821;BME280;9539;59.332;18.034;2022-09-01T03:40:05;102065.69;;;12.05;100.00
18821;BME280;9539;59.332;18.034;2022-09-01T03:42:33;102063.78;;;12.07;100.00
18821;BME280;9539;59.332;18.034;2022-09-01T03:45:00;102065.53;;;12.08;100.00
18821;BME280;9539;59.332;18.034;2022-09-01T03:47:28;102065.97;;;11.98;100.00
18821;BME280;9539;59.332;18.034;2022-09-01T03:49:55;102063.09;;;12.03;100.00
18821;BME280;9539;59.332;18.034;2022-09-01T03:52:23;102063.44;;;12.14;100.00
18821;BME280;9539;59.332;18.034;2022-09-01T03:54:57;102062.94;;;12.06;100.00
18821;BME280;9539;59.332;18.034;2022-09-01T03:57:24;102063.88;;;12.05;100.00
18821;BME280;9539;59.332;18.034;2022-09-01T03:59:51;102062.91;;;11.87;100.00
18821;BME280;9539;59.332;18.034;2022-09-01T04:02:18;102065.81;;;12.01;100.00
18821;BME280;9539;59.332;18.034;2022-09-01T04:04:46;102061.69;;;11.94;100.00
18821;BME280;9539;59.332;18.034;2022-09-01T04:07:13;102063.31;;;11.98;100.00
18821;BME280;9539;59.332;18.034;2022-09-01T04:09:40;102069.50;;;11.99;100.00
18821;BME280;9539;59.332;18.034;2022-09-01T04:12:09;102072.00;;;12.02;100.00
18821;BME280;9539;59.332;18.034;2022-09-01T04:14:40;102063.16;;;12.01;100.00
18821;BME280;9539;59.332;18.034;2022-09-01T04:17:07;102070.09;;;12.24;100.00
18821;BME280;9539;59.332;18.034;2022-09-01T04:19:51;102058.34;;;12.47;100.00
18821;BME280;9539;59.332;18.034;2022-09-01T04:22:18;102069.56;;;12.54;100.00
18821;BME280;9539;59.332;18.034;2022-09-01T04:24:47;102067.63;;;12.57;100.00
18821;BME280;9539;59.332;18.034;2022-09-01T04:27:15;102072.88;;;12.40;100.00
18821;BME280;9539;59.332;18.034;2022-09-01T04:29:49;102062.28;;;12.38;100.00
18821;BME280;9539;59.332;18.034;2022-09-01T04:32:16;102066.50;;;12.44;100.00
18821;BME280;9539;59.332;18.034;2022-09-01T04:34:45;102057.78;;;12.40;100.00
18821;BME280;9539;59.332;18.034;2022-09-01T04:37:14;102062.69;;;12.31;100.00
18821;BME280;9539;59.332;18.034;2022-09-01T04:39:47;102064.09;;;12.38;100.00
18821;BME280;9539;59.332;18.034;2022-09-01T04:42:18;102070.94;;;12.62;100.00
18821;BME280;9539;59.332;18.034;2022-09-01T04:44:46;102067.66;;;12.74;100.00
18821;BME280;9539;59.332;18.034;2022-09-01T04:47:13;102060.56;;;12.92;100.00
18821;BME280;9539;59.332;18.034;2022-09-01T04:49:54;102064.28;;;13.07;100.00
18821;BME280;9539;59.332;18.034;2022-09-01T04:52:24;102058.78;;;13.10;100.00
18821;BME280;9539;59.332;18.034;2022-09-01T04:54:51;102062.81;;;13.18;100.00
18821;BME280;9539;59.332;18.034;2022-09-01T04:57:20;102067.00;;;13.41;100.00
18821;BME280;9539;59.332;18.034;2022-09-01T04:59:48;102065.91;;;13.78;100.00
18821;BME280;9539;59.332;18.034;2022-09-01T05:02:15;102061.91;;;14.83;100.00
18821;BME280;9539;59.332;18.034;2022-09-01T05:04:42;102068.00;;;15.60;100.00
18821;BME280;9539;59.332;18.034;2022-09-01T05:07:11;102074.00;;;16.63;100.00
18821;BME280;9539;59.332;18.034;2022-09-01T05:09:40;102076.41;;;17.07;100.00
18821;BME280;9539;59.332;18.034;2022-09-01T05:12:07;102066.38;;;16.84;100.00
18821;BME280;9539;59.332;18.034;2022-09-01T05:14:38;102068.25;;;16.96;100.00
18821;BME280;9539;59.332;18.034;2022-09-01T05:17:09;102065.06;;;18.19;100.00
18821;BME280;9539;59.332;18.034;2022-09-01T05:19:36;102061.69;;;18.28;100.00
18821;BME280;9539;59.332;18.034;2022-09-01T05:22:03;102067.13;;;18.52;100.00
18821;BME280;9539;59.332;18.034;2022-09-01T05:24:33;102068.47;;;19.17;100.00
18821;BME280;9539;59.332;18.034;2022-09-01T05:27:00;102065.44;;;18.38;100.00
18821;BME280;9539;59.332;18.034;2022-09-01T05:29:28;102062.03;;;18.96;100.00
18821;BME280;9539;59.332;18.034;2022-09-01T05:31:56;102067.13;;;19.58;95.46
18821;BME280;9539;59.332;18.034;2022-09-01T05:34:25;102064.53;;;20.03;89.52
18821;BME280;9539;59.332;18.034;2022-09-01T05:36:53;102069.56;;;20.84;87.70
18821;BME280;9539;59.332;18.034;2022-09-01T05:39:22;102063.72;;;21.10;84.17
18821;BME280;9539;59.332;18.034;2022-09-01T05:41:50;102055.38;;;20.70;85.41
18821;BME280;9539;59.332;18.034;2022-09-01T05:44:17;102057.16;;;19.36;93.93
18821;BME280;9539;59.332;18.034;2022-09-01T05:46:47;102077.53;;;19.51;89.86
18821;BME280;9539;59.332;18.034;2022-09-01T05:49:16;102067.47;;;18.60;98.51
18821;BME280;9539;59.332;18.034;2022-09-01T05:51:45;102067.47;;;18.84;96.87
18821;BME280;9539;59.332;18.034;2022-09-01T05:54:15;102073.44;;;19.35;95.05
18821;BME280;9539;59.332;18.034;2022-09-01T05:56:43;102083.63;;;20.22;87.88
18821;BME280;9539;59.332;18.034;2022-09-01T05:59:10;102074.63;;;21.09;79.01
18821;BME280;9539;59.332;18.034;2022-09-01T06:01:37;102078.94;;;21.43;75.45
18821;BME280;9539;59.332;18.034;2022-09-01T06:04:06;102071.13;;;20.43;82.20
18821;BME280;9539;59.332;18.034;2022-09-01T06:06:38;102073.03;;;21.59;73.66
18821;BME280;9539;59.332;18.034;2022-09-01T06:09:08;102075.09;;;21.67;74.19
18821;BME280;9539;59.332;18.034;2022-09-01T06:11:36;102076.41;;;21.72;69.72
18821;BME280;9539;59.332;18.034;2022-09-01T06:14:03;102078.16;;;22.84;65.60
18821;BME280;9539;59.332;18.034;2022-09-01T06:16:30;102070.19;;;22.73;65.19
18821;BME280;9539;59.332;18.034;2022-09-01T06:18:57;102071.53;;;22.17;71.31
18821;BME280;9539;59.332;18.034;2022-09-01T06:21:26;102083.31;;;22.87;65.56
18821;BME280;9539;59.332;18.034;2022-09-01T06:23:56;102064.78;;;23.59;60.62
18821;BME280;9539;59.332;18.034;2022-09-01T06:26:25;102063.34;;;22.28;60.12
18821;BME280;9539;59.332;18.034;2022-09-01T06:28:54;102063.75;;;23.41;60.26
18821;BME280;9539;59.332;18.034;2022-09-01T06:31:22;102061.91;;;23.70;60.22
18821;BME280;9539;59.332;18.034;2022-09-01T06:33:50;102050.75;;;23.83;56.55
18821;BME280;9539;59.332;18.034;2022-09-01T06:36:19;102058.78;;;23.36;59.98
18821;BME280;9539;59.332;18.034;2022-09-01T06:38:46;102049.75;;;22.09;64.22
18821;BME280;9539;59.332;18.034;2022-09-01T06:41:15;102051.28;;;22.42;62.41
18821;BME280;9539;59.332;18.034;2022-09-01T06:43:44;102045.13;;;22.90;64.60
18821;BME280;9539;59.332;18.034;2022-09-01T06:46:11;102044.78;;;23.70;58.64
18821;BME280;9539;59.332;18.034;2022-09-01T06:48:38;102045.63;;;23.70;57.87
18821;BME280;9539;59.332;18.034;2022-09-01T06:51:12;102040.75;;;23.83;56.34
18821;BME280;9539;59.332;18.034;2022-09-01T06:53:40;102047.88;;;23.84;56.55
18821;BME280;9539;59.332;18.034;2022-09-01T06:56:07;102047.41;;;23.23;56.58
18821;BME280;9539;59.332;18.034;2022-09-01T06:58:39;102041.47;;;21.80;65.60
18821;BME280;9539;59.332;18.034;2022-09-01T07:01:09;102044.69;;;21.44;66.16
18821;BME280;9539;59.332;18.034;2022-09-01T07:03:40;102049.13;;;22.36;61.09
18821;BME280;9539;59.332;18.034;2022-09-01T07:06:08;102043.00;;;22.93;58.82
18821;BME280;9539;59.332;18.034;2022-09-01T07:08:36;102048.09;;;22.96;60.80
18821;BME280;9539;59.332;18.034;2022-09-01T07:11:04;102047.38;;;23.42;55.93
18821;BME280;9539;59.332;18.034;2022-09-01T07:13:32;102043.22;;;23.67;54.46
18821;BME280;9539;59.332;18.034;2022-09-01T07:16:02;102037.63;;;24.15;52.55
18821;BME280;9539;59.332;18.034;2022-09-01T07:18:31;102050.00;;;24.55;50.22
18821;BME280;9539;59.332;18.034;2022-09-01T07:20:59;102049.03;;;24.46;50.28
18821;BME280;9539;59.332;18.034;2022-09-01T07:23:31;102055.28;;;25.01;47.69
18821;BME280;9539;59.332;18.034;2022-09-01T07:25:58;102044.75;;;24.44;49.07
18821;BME280;9539;59.332;18.034;2022-09-01T07:28:25;102054.34;;;24.11;48.08
18821;BME280;9539;59.332;18.034;2022-09-01T07:30:56;102052.28;;;23.85;51.26
18821;BME280;9539;59.332;18.034;2022-09-01T07:33:25;102058.59;;;24.13;47.87
18821;BME280;9539;59.332;18.034;2022-09-01T07:35:54;102062.88;;;24.70;48.57
18821;BME280;9539;59.332;18.034;2022-09-01T07:38:22;102047.22;;;25.53;45.18
18821;BME280;9539;59.332;18.034;2022-09-01T07:40:49;102062.00;;;26.36;43.00
18821;BME280;9539;59.332;18.034;2022-09-01T07:43:19;102047.75;;;26.16;43.57
18821;BME280;9539;59.332;18.034;2022-09-01T07:45:47;102050.16;;;26.61;41.84
18821;BME280;9539;59.332;18.034;2022-09-01T07:48:16;102054.59;;;26.62;41.44
18821;BME280;9539;59.332;18.034;2022-09-01T07:50:49;102054.78;;;25.67;43.18
18821;BME280;9539;59.332;18.034;2022-09-01T07:53:19;102062.78;;;25.95;41.74
18821;BME280;9539;59.332;18.034;2022-09-01T07:55:47;102060.06;;;25.07;44.33
18821;BME280;9539;59.332;18.034;2022-09-01T07:58:17;102058.47;;;26.52;41.44
18821;BME280;9539;59.332;18.034;2022-09-01T08:00:44;102059.75;;;24.93;43.88
18821;BME280;9539;59.332;18.034;2022-09-01T08:03:12;102047.91;;;24.21;44.87
18821;BME280;9539;59.332;18.034;2022-09-01T08:05:40;102057.56;;;21.82;55.26
18821;BME280;9539;59.332;18.034;2022-09-01T08:08:09;102054.88;;;22.12;55.09
18821;BME280;9539;59.332;18.034;2022-09-01T08:10:37;102042.88;;;22.05;56.88
18821;BME280;9539;59.332;18.034;2022-09-01T08:13:04;102053.56;;;21.97;56.56
18821;BME280;9539;59.332;18.034;2022-09-01T08:15:31;102046.84;;;23.95;50.91
18821;BME280;9539;59.332;18.034;2022-09-01T08:17:57;102050.16;;;24.53;45.46
18821;BME280;9539;59.332;18.034;2022-09-01T08:20:24;102033.13;;;23.31;50.93
18821;BME280;9539;59.332;18.034;2022-09-01T08:22:51;102037.53;;;22.15;51.79
18821;BME280;9539;59.332;18.034;2022-09-01T08:25:20;102041.44;;;22.81;52.83
18821;BME280;9539;59.332;18.034;2022-09-01T08:27:47;102047.47;;;24.16;49.03
18821;BME280;9539;59.332;18.034;2022-09-01T08:30:14;102045.41;;;22.27;53.65
18821;BME280;9539;59.332;18.034;2022-09-01T08:32:41;102058.13;;;20.59;62.35
18821;BME280;9539;59.332;18.034;2022-09-01T08:35:09;102057.78;;;20.19;84.16
18821;BME280;9539;59.332;18.034;2022-09-01T08:37:37;102076.31;;;18.24;100.00
18821;BME280;9539;59.332;18.034;2022-09-01T08:40:05;102086.97;;;18.13;100.00
18821;BME280;9539;59.332;18.034;2022-09-01T08:42:45;102070.09;;;18.11;100.00
18821;BME280;9539;59.332;18.034;2022-09-01T08:45:20;102079.56;;;17.91;100.00
18821;BME280;9539;59.332;18.034;2022-09-01T08:47:50;102080.88;;;17.98;100.00
18821;BME280;9539;59.332;18.034;2022-09-01T08:50:18;102081.09;;;17.95;100.00
18821;BME280;9539;59.332;18.034;2022-09-01T08:52:50;102051.72;;;17.54;100.00
18821;BME280;9539;59.332;18.034;2022-09-01T08:55:24;102085.28;;;17.86;100.00
18821;BME280;9539;59.332;18.034;2022-09-01T08:57:55;102085.25;;;18.73;100.00
18821;BME280;9539;59.332;18.034;2022-09-01T09:00:24;102071.34;;;19.84;100.00
18821;BME280;9539;59.332;18.034;2022-09-01T09:03:06;102074.56;;;19.89;100.00
18821;BME280;9539;59.332;18.034;2022-09-01T09:05:51;102075.44;;;20.34;100.00
18821;BME280;9539;59.332;18.034;2022-09-01T09:11:33;102066.66;;;21.19;94.37
18821;BME280;9539;59.332;18.034;2022-09-01T09:14:10;102067.09;;;22.56;83.56
18821;BME280;9539;59.332;18.034;2022-09-01T09:16:41;102073.59;;;22.84;83.22
18821;BME280;9539;59.332;18.034;2022-09-01T09:19:12;102067.13;;;22.66;82.58
18821;BME280;9539;59.332;18.034;2022-09-01T09:21:44;102061.00;;;22.14;83.49
18821;BME280;9539;59.332;18.034;2022-09-01T09:24:16;102060.81;;;23.25;79.30
18821;BME280;9539;59.332;18.034;2022-09-01T09:26:47;102068.00;;;24.28;76.06
18821;BME280;9539;59.332;18.034;2022-09-01T09:29:16;102056.66;;;23.11;77.32
18821;BME280;9539;59.332;18.034;2022-09-01T09:31:45;102053.94;;;22.82;73.24
18821;BME280;9539;59.332;18.034;2022-09-01T09:34:29;102048.84;;;22.39;77.17
18821;BME280;9539;59.332;18.034;2022-09-01T09:37:00;102053.69;;;21.96;76.42
18821;BME280;9539;59.332;18.034;2022-09-01T09:39:41;102052.16;;;21.82;78.42
18821;BME280;9539;59.332;18.034;2022-09-01T09:42:10;102042.34;;;22.11;77.74
18821;BME280;9539;59.332;18.034;2022-09-01T09:44:42;102047.59;;;22.53;75.99
18821;BME280;9539;59.332;18.034;2022-09-01T09:47:33;102042.97;;;22.24;77.83
18821;BME280;9539;59.332;18.034;2022-09-01T09:50:11;102035.41;;;22.78;72.69
18821;BME280;9539;59.332;18.034;2022-09-01T09:52:39;102041.81;;;22.67;74.32
18821;BME280;9539;59.332;18.034;2022-09-01T09:55:20;102033.44;;;22.80;65.85
18821;BME280;9539;59.332;18.034;2022-09-01T09:57:49;102036.78;;;23.68;62.62
18821;BME280;9539;59.332;18.034;2022-09-01T10:00:21;102045.38;;;23.44;64.69
18821;BME280;9539;59.332;18.034;2022-09-01T10:02:52;102038.53;;;23.40;61.45
18821;BME280;9539;59.332;18.034;2022-09-01T10:05:36;102039.25;;;23.99;59.92
18821;BME280;9539;59.332;18.034;2022-09-01T10:08:04;102043.47;;;23.83;57.93
18821;BME280;9539;59.332;18.034;2022-09-01T10:10:37;102047.94;;;24.02;55.13
18821;BME280;9539;59.332;18.034;2022-09-01T10:13:08;102048.91;;;24.48;54.02
18821;BME280;9539;59.332;18.034;2022-09-01T10:15:38;102037.66;;;25.49;51.24
18821;BME280;9539;59.332;18.034;2022-09-01T10:18:08;102034.03;;;25.23;51.56
18821;BME280;9539;59.332;18.034;2022-09-01T10:20:44;102066.13;;;21.13;66.53
18821;BME280;9539;59.332;18.034;2022-09-01T10:23:13;102079.25;;;17.31;100.00
18821;BME280;9539;59.332;18.034;2022-09-01T10:25:40;102065.69;;;17.59;100.00
18821;BME280;9539;59.332;18.034;2022-09-01T10:28:13;102070.59;;;16.73;100.00
18821;BME280;9539;59.332;18.034;2022-09-01T10:30:44;102059.53;;;16.92;100.00
18821;BME280;9539;59.332;18.034;2022-09-01T10:33:15;102046.53;;;17.38;100.00
18821;BME280;9539;59.332;18.034;2022-09-01T10:35:43;102052.28;;;17.72;100.00
18821;BME280;9539;59.332;18.034;2022-09-01T10:38:15;102058.44;;;17.86;100.00
18821;BME280;9539;59.332;18.034;2022-09-01T10:40:44;102058.84;;;17.80;100.00
18821;BME280;9539;59.332;18.034;2022-09-01T10:43:38;102061.53;;;17.68;100.00
18821;BME280;9539;59.332;18.034;2022-09-01T10:46:42;102057.19;;;17.40;100.00
18821;BME280;9539;59.332;18.034;2022-09-01T10:49:19;102060.25;;;17.86;100.00
18821;BME280;9539;59.332;18.034;2022-09-01T10:51:46;102061.41;;;18.07;100.00
18821;BME280;9539;59.332;18.034;2022-09-01T10:57:37;102050.50;;;19.53;100.00
18821;BME280;9539;59.332;18.034;2022-09-01T11:03:53;102052.25;;;20.54;100.00
18821;BME280;9539;59.332;18.034;2022-09-01T11:06:44;102051.03;;;20.90;100.00
18821;BME280;9539;59.332;18.034;2022-09-01T11:09:21;102053.00;;;20.45;95.20
18821;BME280;9539;59.332;18.034;2022-09-01T11:14:47;102052.97;;;20.67;81.38
18821;BME280;9539;59.332;18.034;2022-09-01T11:17:17;102043.31;;;20.54;79.31
18821;BME280;9539;59.332;18.034;2022-09-01T11:19:54;102045.19;;;20.09;79.92
18821;BME280;9539;59.332;18.034;2022-09-01T11:22:25;102044.09;;;19.43;68.73
18821;BME280;9539;59.332;18.034;2022-09-01T11:25:31;102046.47;;;19.24;66.86
18821;BME280;9539;59.332;18.034;2022-09-01T11:31:02;102048.34;;;20.14;70.74
18821;BME280;9539;59.332;18.034;2022-09-01T11:33:49;102048.00;;;20.41;70.95
18821;BME280;9539;59.332;18.034;2022-09-01T11:36:25;102050.81;;;17.80;84.63
18821;BME280;9539;59.332;18.034;2022-09-01T11:38:58;102076.59;;;16.22;98.19
18821;BME280;9539;59.332;18.034;2022-09-01T11:41:32;102079.28;;;16.64;97.57
18821;BME280;9539;59.332;18.034;2022-09-01T11:44:02;102063.06;;;16.66;97.55
18821;BME280;9539;59.332;18.034;2022-09-01T11:46:37;102064.59;;;16.70;96.98
18821;BME280;9539;59.332;18.034;2022-09-01T11:49:24;102076.03;;;16.45;98.74
18821;BME280;9539;59.332;18.034;2022-09-01T11:51:54;102071.78;;;16.69;95.92
18821;BME280;9539;59.332;18.034;2022-09-01T11:54:22;102066.59;;;17.20;94.05
18821;BME280;9539;59.332;18.034;2022-09-01T11:56:49;102061.19;;;17.59;89.64
18821;BME280;9539;59.332;18.034;2022-09-01T11:59:29;102063.03;;;16.25;91.07
18821;BME280;9539;59.332;18.034;2022-09-01T12:01:57;102058.47;;;17.34;87.36
18821;BME280;9539;59.332;18.034;2022-09-01T12:04:30;102054.31;;;17.55;87.22
18821;BME280;9539;59.332;18.034;2022-09-01T12:07:01;102055.63;;;17.10;88.27
18821;BME280;9539;59.332;18.034;2022-09-01T12:09:33;102062.38;;;18.06;84.35
18821;BME280;9539;59.332;18.034;2022-09-01T12:12:01;102052.63;;;17.80;80.40
18821;BME280;9539;59.332;18.034;2022-09-01T12:14:28;102052.28;;;17.72;77.87
18821;BME280;9539;59.332;18.034;2022-09-01T12:16:58;102046.59;;;18.14;74.41
18821;BME280;9539;59.332;18.034;2022-09-01T12:19:27;102051.88;;;17.65;77.07
18821;BME280;9539;59.332;18.034;2022-09-01T12:21:58;102053.78;;;18.50;76.14
18821;BME280;9539;59.332;18.034;2022-09-01T12:24:27;102056.72;;;18.84;72.01
18821;BME280;9539;59.332;18.034;2022-09-01T12:26:57;102048.50;;;18.49;72.86
18821;BME280;9539;59.332;18.034;2022-09-01T12:29:26;102045.47;;;18.90;69.22
18821;BME280;9539;59.332;18.034;2022-09-01T12:31:53;102050.28;;;18.73;67.44
18821;BME280;9539;59.332;18.034;2022-09-01T12:34:25;102042.34;;;18.96;61.47
18821;BME280;9539;59.332;18.034;2022-09-01T12:37:05;102046.25;;;18.92;60.92
18821;BME280;9539;59.332;18.034;2022-09-01T12:39:36;102047.44;;;18.88;60.57
18821;BME280;9539;59.332;18.034;2022-09-01T12:42:07;102046.09;;;18.93;61.66
18821;BME280;9539;59.332;18.034;2022-09-01T12:44:43;102038.34;;;19.12;58.90
18821;BME280;9539;59.332;18.034;2022-09-01T12:47:13;102035.13;;;18.96;59.52
18821;BME280;9539;59.332;18.034;2022-09-01T12:49:42;102030.44;;;18.27;61.60
18821;BME280;9539;59.332;18.034;2022-09-01T12:52:13;102029.28;;;18.42;62.60
18821;BME280;9539;59.332;18.034;2022-09-01T12:54:46;102025.03;;;18.87;62.01
18821;BME280;9539;59.332;18.034;2022-09-01T12:57:24;102028.38;;;18.54;60.91
18821;BME280;9539;59.332;18.034;2022-09-01T13:00:12;102015.97;;;18.77;61.45
18821;BME280;9539;59.332;18.034;2022-09-01T13:02:41;102017.44;;;19.05;60.04
18821;BME280;9539;59.332;18.034;2022-09-01T13:05:21;102023.25;;;19.34;58.57
18821;BME280;9539;59.332;18.034;2022-09-01T13:07:48;102024.09;;;19.23;58.65
18821;BME280;9539;59.332;18.034;2022-09-01T13:10:16;102017.09;;;18.25;62.38
18821;BME280;9539;59.332;18.034;2022-09-01T13:12:43;102027.56;;;18.41;64.08
18821;BME280;9539;59.332;18.034;2022-09-01T13:15:12;102032.16;;;18.64;63.99
18821;BME280;9539;59.332;18.034;2022-09-01T13:17:39;102033.81;;;18.78;63.77